Terminal Aerodrome Forecast
Issued by NWS

Home | Current Version | Previous Version | Graphics & Text | Print | Product List | Glossary On
Versions: 1 2 3 4 5 6 7 8 9 10 11 12 13 14 15 16 17 18 19 20 21 22 23
095
FTUS41 KCLE 230102 AAA
TAFFDY
TAF AMD
KFDY 230102Z 2301/2324 18011KT P6SM VCSH SCT028 BKN050
      TEMPO 2302/2306 4SM -SHRA BKN028
     FM230600 21011KT P6SM SCT025 BKN040
     FM231200 23012G18KT 5SM -SHRA OVC015
     FM231900 26020G30KT P6SM OVC018=

USA.gov is the U.S. government's official web portal to all federal, state and local government web resources and services.